createdAt,value
2023-04-04T00:00:40.151Z,8.42
2023-04-04T00:03:07.624Z,8.37
2023-04-04T00:05:36.217Z,8.23
2023-04-04T00:08:04.306Z,8.25
2023-04-04T00:10:31.443Z,8.21
2023-04-04T00:12:59.181Z,8.19
2023-04-04T00:15:26.561Z,8.19
2023-04-04T00:17:53.601Z,8.15
2023-04-04T00:20:20.883Z,8.23
2023-04-04T00:22:47.939Z,8.06
2023-04-04T00:25:15.397Z,8.07
2023-04-04T00:27:42.437Z,8.15
2023-04-04T00:30:09.996Z,8.09
2023-04-04T00:32:37.183Z,8.00
2023-04-04T00:35:04.791Z,8.04
2023-04-04T00:37:31.747Z,8.04
2023-04-04T00:39:58.903Z,8.08
2023-04-04T00:42:26.281Z,8.14
2023-04-04T00:44:53.409Z,8.13
2023-04-04T00:47:26.223Z,8.07
2023-04-04T00:49:53.392Z,8.02
2023-04-04T00:52:21.021Z,7.93
2023-04-04T00:54:48.097Z,7.88
2023-04-04T00:57:15.263Z,7.93
2023-04-04T00:59:43.318Z,7.91
2023-04-04T01:02:10.609Z,7.85
2023-04-04T01:04:38.100Z,7.95
2023-04-04T01:07:05.287Z,7.84
2023-04-04T01:09:33.330Z,7.87
2023-04-04T01:12:00.719Z,7.93
2023-04-04T01:14:30.663Z,7.88
2023-04-04T01:16:58.098Z,7.75
2023-04-04T01:19:38.394Z,7.82
2023-04-04T01:22:14.150Z,7.76
2023-04-04T01:24:45.141Z,7.73
2023-04-04T01:27:13.521Z,7.59
2023-04-04T01:29:52.139Z,7.61
2023-04-04T01:32:21.349Z,7.66
2023-04-04T01:34:54.341Z,7.64
2023-04-04T01:37:31.062Z,7.58
2023-04-04T01:40:24.126Z,7.63
2023-04-04T01:42:53.900Z,7.53
2023-04-04T01:45:23.170Z,7.49
2023-04-04T01:47:51.474Z,7.39
2023-04-04T01:50:22.001Z,7.39
2023-04-04T01:52:50.173Z,7.39
2023-04-04T01:55:17.472Z,7.30
2023-04-04T01:57:44.522Z,7.35
2023-04-04T02:00:12.401Z,7.31
2023-04-04T02:02:45.594Z,7.33
2023-04-04T02:05:12.701Z,7.42
2023-04-04T02:07:40.716Z,7.45
2023-04-04T02:10:19.211Z,7.33
2023-04-04T02:12:46.896Z,7.28
2023-04-04T02:15:14.169Z,7.25
2023-04-04T02:17:41.609Z,7.33
2023-04-04T02:20:10.737Z,7.24
2023-04-04T02:22:38.864Z,7.29
2023-04-04T02:25:07.057Z,7.27
2023-04-04T02:27:34.027Z,7.21
2023-04-04T02:30:01.613Z,7.22
2023-04-04T02:32:30.004Z,7.12
2023-04-04T02:34:57.170Z,7.12
2023-04-04T02:37:24.188Z,7.09
2023-04-04T02:39:53.306Z,7.25
2023-04-04T02:42:21.385Z,7.31
2023-04-04T02:44:51.449Z,7.30
2023-04-04T02:47:18.937Z,7.35
2023-04-04T02:49:46.149Z,7.47
2023-04-04T02:52:14.683Z,7.52
2023-04-04T02:54:46.437Z,7.50
2023-04-04T02:57:24.549Z,7.47
2023-04-04T02:59:51.932Z,7.53
2023-04-04T03:02:19.201Z,7.45
2023-04-04T03:04:46.451Z,7.44
2023-04-04T03:07:14.258Z,7.21
2023-04-04T03:09:45.308Z,7.32
2023-04-04T03:12:12.593Z,7.24
2023-04-04T03:14:40.882Z,7.44
2023-04-04T03:17:09.693Z,7.39
2023-04-04T03:19:36.897Z,7.40
2023-04-04T03:22:03.998Z,7.46
2023-04-04T03:24:33.390Z,7.44
2023-04-04T03:27:01.608Z,7.43
2023-04-04T03:29:28.811Z,7.25
2023-04-04T03:31:57.238Z,7.35
2023-04-04T03:34:25.053Z,7.29
2023-04-04T03:36:53.730Z,7.33
2023-04-04T03:39:21.250Z,7.35
2023-04-04T03:41:48.388Z,7.42
2023-04-04T03:44:15.655Z,7.39
2023-04-04T03:46:42.828Z,7.40
2023-04-04T03:49:13.028Z,7.31
2023-04-04T03:51:40.067Z,7.23
2023-04-04T03:54:07.213Z,7.21
2023-04-04T03:56:34.539Z,7.30
2023-04-04T03:59:05.091Z,7.08
2023-04-04T04:01:32.200Z,7.24
2023-04-04T04:04:01.263Z,7.11
2023-04-04T04:06:28.465Z,7.09
2023-04-04T04:08:56.614Z,7.05
2023-04-04T04:11:23.771Z,7.06
2023-04-04T04:13:51.266Z,6.88
2023-04-04T04:16:18.380Z,6.95
2023-04-04T04:18:46.070Z,6.93
2023-04-04T04:21:19.611Z,6.88
2023-04-04T04:23:46.778Z,7.15
2023-04-04T04:26:13.920Z,7.07
2023-04-04T04:28:41.503Z,7.12
2023-04-04T04:31:12.866Z,7.08
2023-04-04T04:33:46.595Z,7.15
2023-04-04T04:36:13.779Z,7.35
2023-04-04T04:39:03.816Z,7.31
2023-04-04T04:41:36.852Z,7.38
2023-04-04T04:44:04.185Z,7.18
2023-04-04T04:46:31.995Z,7.42
2023-04-04T04:49:00.503Z,7.33
2023-04-04T04:51:30.893Z,7.32
2023-04-04T04:53:59.168Z,7.34
2023-04-04T04:56:28.025Z,7.44
2023-04-04T04:59:00.172Z,7.36
2023-04-04T05:01:28.902Z,7.32
2023-04-04T05:03:57.580Z,7.32
2023-04-04T05:06:32.807Z,7.33
2023-04-04T05:09:00.419Z,7.54
2023-04-04T05:11:32.280Z,7.51
2023-04-04T05:14:01.187Z,7.51
2023-04-04T05:16:33.505Z,7.74
2023-04-04T05:19:02.086Z,7.63
2023-04-04T05:21:30.947Z,7.60
2023-04-04T05:24:01.111Z,7.56
2023-04-04T05:26:29.767Z,7.69
2023-04-04T05:28:58.015Z,7.79
2023-04-04T05:34:16.628Z,7.98
2023-04-04T05:36:44.147Z,8.15
2023-04-04T05:39:15.602Z,8.31
2023-04-04T05:41:57.848Z,8.43
2023-04-04T05:44:30.907Z,8.46
2023-04-04T05:46:58.183Z,8.42
2023-04-04T05:52:59.750Z,8.77
2023-04-04T05:58:37.024Z,8.99
2023-04-04T06:07:17.382Z,9.15
2023-04-04T06:09:44.790Z,9.14
2023-04-04T06:12:12.029Z,9.05
2023-04-04T06:14:39.676Z,9.26
2023-04-04T06:17:08.138Z,9.06
2023-04-04T06:19:36.166Z,9.19
2023-04-04T06:22:05.330Z,9.12
2023-04-04T06:24:37.027Z,9.25
2023-04-04T06:36:27.391Z,9.46
2023-04-04T06:51:30.435Z,10.13
2023-04-04T06:53:58.324Z,10.17
2023-04-04T06:56:27.142Z,10.31
2023-04-04T06:58:55.380Z,10.55
2023-04-04T07:01:22.468Z,10.74
2023-04-04T07:03:53.779Z,10.73
2023-04-04T07:06:25.968Z,10.85
2023-04-04T07:08:53.631Z,10.91
2023-04-04T07:11:20.915Z,11.14
2023-04-04T07:17:37.214Z,11.27
2023-04-04T07:20:05.546Z,11.24
2023-04-04T07:22:32.602Z,11.19
2023-04-04T07:24:59.633Z,11.20
2023-04-04T07:27:26.724Z,11.27
2023-04-04T07:29:53.872Z,11.25
2023-04-04T07:32:23.228Z,11.19
2023-04-04T07:34:51.492Z,11.27
2023-04-04T07:37:18.840Z,11.15
2023-04-04T07:39:45.997Z,11.27
2023-04-04T07:42:13.225Z,11.29
2023-04-04T07:54:09.662Z,11.40
2023-04-04T07:56:36.916Z,11.25
2023-04-04T08:02:13.510Z,11.46
2023-04-04T08:04:40.881Z,11.72
2023-04-04T08:07:08.022Z,11.93
2023-04-04T08:09:36.643Z,11.82
2023-04-04T08:12:06.275Z,11.97
2023-04-04T08:14:34.150Z,11.90
2023-04-04T08:17:01.651Z,11.83
2023-04-04T08:19:30.875Z,11.93
2023-04-04T08:21:58.600Z,11.95
2023-04-04T08:24:27.123Z,11.96
2023-04-04T08:27:04.581Z,12.16
2023-04-04T08:29:34.524Z,12.01
2023-04-04T08:32:01.616Z,12.13
2023-04-04T08:34:28.939Z,12.26
2023-04-04T08:36:56.581Z,12.37
2023-04-04T08:39:24.551Z,12.41
2023-04-04T08:42:02.015Z,12.28
2023-04-04T08:44:30.461Z,12.48
2023-04-04T08:47:00.414Z,12.39
2023-04-04T08:49:28.542Z,12.49
2023-04-04T08:51:57.912Z,12.60
2023-04-04T08:54:26.869Z,12.44
2023-04-04T08:56:54.420Z,12.74
2023-04-04T08:59:22.121Z,12.88
2023-04-04T09:01:51.719Z,12.92
2023-04-04T09:04:21.539Z,12.89
2023-04-04T09:06:48.790Z,13.02
2023-04-04T09:09:17.406Z,12.86
2023-04-04T09:11:46.673Z,13.02
2023-04-04T09:14:13.787Z,12.93
2023-04-04T09:16:41.346Z,12.83
2023-04-04T09:19:08.520Z,12.93
2023-04-04T09:21:35.742Z,12.76
2023-04-04T09:24:04.833Z,12.71
2023-04-04T09:26:48.084Z,12.84
2023-04-04T09:29:18.866Z,12.74
2023-04-04T09:31:47.041Z,12.78
2023-04-04T09:34:19.119Z,12.85
2023-04-04T09:36:46.885Z,13.05
2023-04-04T09:39:17.538Z,12.98
2023-04-04T09:41:46.038Z,13.14
2023-04-04T09:44:14.019Z,13.09
2023-04-04T09:46:41.936Z,13.18
2023-04-04T09:49:19.994Z,13.33
2023-04-04T09:54:58.127Z,13.54
2023-04-04T10:00:42.293Z,13.78
2023-04-04T10:03:11.779Z,13.82
2023-04-04T10:05:57.763Z,13.82
2023-04-04T10:08:28.129Z,13.93
2023-04-04T10:11:11.437Z,13.99
2023-04-04T10:13:41.888Z,14.04
2023-04-04T10:16:11.298Z,14.21
2023-04-04T10:18:58.855Z,14.42
2023-04-04T10:21:27.703Z,14.39
2023-04-04T10:24:14.311Z,14.37
2023-04-04T10:26:44.341Z,14.31
2023-04-04T10:29:11.436Z,14.24
2023-04-04T10:31:41.829Z,14.19
2023-04-04T10:34:28.818Z,14.01
2023-04-04T10:37:10.070Z,13.93
2023-04-04T10:39:45.228Z,13.85
2023-04-04T10:45:22.287Z,13.66
2023-04-04T10:47:50.925Z,13.56
2023-04-04T10:50:39.669Z,13.76
2023-04-04T10:53:07.747Z,13.91
2023-04-04T10:55:37.623Z,13.88
2023-04-04T10:58:06.432Z,14.06
2023-04-04T11:00:33.524Z,14.12
2023-04-04T11:03:02.366Z,14.22
2023-04-04T11:05:59.408Z,14.28
2023-04-04T11:08:28.900Z,14.17
2023-04-04T11:18:17.939Z,14.08
2023-04-04T11:20:54.672Z,14.08
2023-04-04T11:23:26.346Z,14.04
2023-04-04T11:25:54.401Z,14.12
2023-04-04T11:28:33.538Z,14.18
2023-04-04T11:34:33.462Z,14.14
2023-04-04T11:37:16.061Z,14.05
2023-04-04T11:39:57.497Z,14.15
2023-04-04T11:42:25.026Z,14.06
2023-04-04T11:44:52.125Z,14.15
2023-04-04T12:06:36.695Z,13.88
2023-04-04T12:12:17.164Z,13.81
2023-04-04T12:14:45.017Z,13.78
2023-04-04T12:20:23.107Z,13.95
2023-04-04T12:29:52.417Z,13.79
2023-04-04T12:35:55.048Z,14.12
2023-04-04T12:38:58.426Z,14.16
2023-04-04T12:41:25.491Z,14.06
2023-04-04T12:43:52.620Z,14.12
2023-04-04T12:46:27.433Z,14.18
2023-04-04T12:48:55.386Z,14.08
2023-04-04T12:51:31.158Z,14.09
2023-04-04T12:53:58.543Z,14.14
2023-04-04T12:56:29.363Z,14.23
2023-04-04T12:59:03.745Z,14.23
2023-04-04T13:01:37.765Z,14.28
2023-04-04T13:04:04.855Z,14.23
2023-04-04T13:06:32.976Z,14.29
2023-04-04T13:09:00.203Z,14.33
2023-04-04T13:12:00.374Z,14.42
2023-04-04T13:14:29.158Z,14.39
2023-04-04T13:17:05.948Z,14.44
2023-04-04T13:19:52.886Z,14.55
2023-04-04T13:22:20.083Z,14.46
2023-04-04T13:24:47.086Z,14.54
2023-04-04T13:27:14.168Z,14.58
2023-04-04T13:29:41.142Z,14.55
2023-04-04T13:32:09.401Z,14.57
2023-04-04T13:34:36.497Z,14.60
2023-04-04T13:37:03.533Z,14.66
2023-04-04T13:39:30.603Z,14.62
2023-04-04T13:41:57.941Z,14.68
2023-04-04T13:44:26.776Z,14.71
2023-04-04T13:46:54.417Z,14.73
2023-04-04T13:49:21.574Z,14.61
2023-04-04T13:51:48.876Z,14.56
2023-04-04T13:54:16.912Z,14.50
2023-04-04T13:56:44.174Z,14.56
2023-04-04T13:59:12.034Z,14.45
2023-04-04T14:01:42.396Z,14.47
2023-04-04T14:04:22.939Z,14.42
2023-04-04T14:06:51.061Z,14.26
2023-04-04T14:09:18.892Z,14.23
2023-04-04T14:11:46.552Z,14.26
2023-04-04T14:14:13.777Z,14.28
2023-04-04T14:16:41.347Z,14.34
2023-04-04T14:19:08.527Z,14.34
2023-04-04T14:21:35.844Z,14.30
2023-04-04T14:24:03.641Z,14.30
2023-04-04T14:26:31.530Z,14.26
2023-04-04T14:28:59.827Z,14.09
2023-04-04T14:31:27.309Z,14.11
2023-04-04T14:33:54.457Z,14.11
2023-04-04T14:36:21.859Z,14.07
2023-04-04T14:38:49.187Z,14.06
2023-04-04T14:41:17.028Z,14.01
2023-04-04T14:43:45.580Z,14.10
2023-04-04T14:46:12.702Z,13.99
2023-04-04T14:48:39.755Z,14.01
2023-04-04T14:54:04.385Z,13.97
2023-04-04T14:59:40.914Z,13.85
2023-04-04T15:05:30.367Z,13.74
2023-04-04T15:07:57.524Z,13.70
2023-04-04T15:10:26.031Z,13.67
2023-04-04T15:19:27.096Z,13.51
2023-04-04T15:21:57.209Z,13.54
2023-04-04T15:24:28.137Z,13.37
2023-04-04T15:26:56.571Z,13.54
2023-04-04T15:29:24.857Z,13.42
2023-04-04T15:31:52.161Z,13.43
2023-04-04T15:34:19.548Z,13.39
2023-04-04T15:36:46.684Z,13.41
2023-04-04T15:42:23.237Z,12.92
2023-04-04T15:45:09.444Z,12.85
2023-04-04T15:47:37.025Z,12.64
2023-04-04T15:50:04.349Z,12.48
2023-04-04T15:52:31.550Z,12.32
2023-04-04T15:54:58.717Z,12.18
2023-04-04T16:24:19.999Z,11.93
